Time;durP1;ratioP1;P1;durP2;ratioP2;P2;SDS_P1;SDS_P2;PMS_P1;PMS_P2;Temp;Humidity;BMP_temperature;BMP_pressure;BME280_temperature;BME280_humidity;BME280_pressure;Samples;Min_cycle;Max_cycle;Signal;HPM_P1;HPM_P2
2022/05/28 00:01:45;;;;;;;2.20;1.55;;;;;;;15.62;74.56;97048.50;5033502;28;20048;-65
2022/05/28 00:04:13;;;;;;;2.60;1.27;;;;;;;15.67;74.92;97048.91;5037359;28;20098;-64
2022/05/28 00:06:38;;;;;;;2.95;1.70;;;;;;;15.55;75.64;97057.56;5033847;28;20375;-66
2022/05/28 00:09:05;;;;;;;2.10;1.30;;;;;;;15.57;76.51;97046.91;5037665;28;20045;-63
2022/05/28 00:11:38;;;;;;;2.45;1.33;;;;;;;15.57;75.94;97049.66;5041805;28;20063;-65
2022/05/28 00:14:05;;;;;;;3.35;1.15;;;;;;;15.55;76.53;97043.75;5036472;28;20183;-64
2022/05/28 00:16:31;;;;;;;2.30;1.25;;;;;;;15.52;76.44;97036.28;5033182;28;20037;-65
2022/05/28 00:18:56;;;;;;;2.45;1.30;;;;;;;15.51;76.76;97037.44;5035987;28;20525;-64
2022/05/28 00:21:23;;;;;;;3.33;1.40;;;;;;;15.48;76.97;97038.22;5026746;28;20979;-64
2022/05/28 00:23:49;;;;;;;3.67;1.52;;;;;;;15.47;77.14;97029.16;5021289;28;20128;-64
2022/05/28 00:26:16;;;;;;;2.30;1.38;;;;;;;15.48;77.09;97035.44;5016467;28;20069;-65
2022/05/28 00:28:42;;;;;;;2.90;1.30;;;;;;;15.41;77.00;97035.44;5035599;28;20041;-65
2022/05/28 00:31:07;;;;;;;5.70;1.27;;;;;;;15.35;77.77;97024.00;5016801;28;20394;-64
2022/05/28 00:33:33;;;;;;;3.00;1.35;;;;;;;15.04;79.10;97020.75;5038016;28;20065;-64
2022/05/28 00:36:00;;;;;;;2.38;1.60;;;;;;;14.96;79.86;97018.34;5032320;28;20441;-64
2022/05/28 00:38:27;;;;;;;2.85;1.30;;;;;;;14.88;80.97;97023.03;5036899;28;20045;-63
2022/05/28 00:40:55;;;;;;;4.63;1.65;;;;;;;14.82;81.91;97019.06;5023047;28;20457;-65
2022/05/28 00:43:21;;;;;;;2.55;1.38;;;;;;;14.70;82.70;97014.69;5036447;28;20317;-65
2022/05/28 00:45:50;;;;;;;2.67;1.20;;;;;;;14.58;83.26;97015.78;5040271;28;20641;-64
2022/05/28 00:48:26;;;;;;;4.15;1.95;;;;;;;14.59;84.54;97005.56;5027241;28;20037;-63
2022/05/28 00:50:51;;;;;;;2.85;1.15;;;;;;;14.63;86.18;97009.13;5034372;28;20032;-64
2022/05/28 00:53:18;;;;;;;3.92;1.45;;;;;;;14.65;86.31;97009.53;5034548;28;20091;-64
2022/05/28 00:55:43;;;;;;;2.95;1.52;;;;;;;14.61;87.28;97006.75;5045430;28;20139;-65
2022/05/28 00:58:09;;;;;;;3.08;1.17;;;;;;;14.51;88.47;96996.41;5053514;28;20064;-67
2022/05/28 01:00:36;;;;;;;3.72;1.48;;;;;;;14.37;88.49;96996.34;5045601;28;20049;-65
2022/05/28 01:03:05;;;;;;;4.15;1.40;;;;;;;14.27;90.06;96992.34;5038823;28;20044;-64
2022/05/28 01:05:36;;;;;;;2.08;1.42;;;;;;;14.22;91.51;96996.25;5037586;28;20037;-65
2022/05/28 01:08:04;;;;;;;2.78;1.50;;;;;;;14.22;91.81;96995.47;5060695;28;20041;-64
2022/05/28 01:10:30;;;;;;;2.22;1.48;;;;;;;14.13;92.70;96995.78;5054505;28;20055;-64
2022/05/28 01:13:03;;;;;;;3.03;1.50;;;;;;;13.99;93.28;96991.00;5041612;28;20437;-65
2022/05/28 01:15:36;;;;;;;2.20;1.30;;;;;;;13.90;94.49;96996.00;5037136;28;20832;-64
2022/05/28 01:18:11;;;;;;;2.92;1.30;;;;;;;13.90;95.82;96996.00;5039897;28;20037;-65
2022/05/28 01:20:50;;;;;;;5.63;1.40;;;;;;;13.84;96.28;96984.56;5039021;28;20044;-65
2022/05/28 01:23:50;;;;;;;4.38;1.67;;;;;;;13.86;96.82;96987.72;5035085;28;20048;-64
2022/05/28 01:26:40;;;;;;;5.07;1.58;;;;;;;13.68;96.73;96976.56;5034074;28;20736;-65
2022/05/28 01:29:08;;;;;;;2.72;1.73;;;;;;;13.60;97.66;96977.69;5033891;28;20148;-65
2022/05/28 01:31:35;;;;;;;3.15;1.63;;;;;;;13.52;99.23;96971.34;5039561;28;20063;-65
2022/05/28 01:34:06;;;;;;;3.47;1.20;;;;;;;13.49;98.45;96985.84;5049027;28;20064;-65
2022/05/28 01:36:33;;;;;;;3.78;1.50;;;;;;;13.49;98.48;96982.31;5062887;28;20041;-64
2022/05/28 01:39:00;;;;;;;3.42;1.67;;;;;;;13.48;97.80;96981.50;5042517;28;20041;-65
2022/05/28 01:41:29;;;;;;;3.67;2.33;;;;;;;13.34;97.95;96971.16;5034037;28;20051;-65
2022/05/28 01:43:56;;;;;;;4.50;1.67;;;;;;;13.31;99.02;96976.63;5039616;28;20071;-64
2022/05/28 01:46:23;;;;;;;3.22;1.70;;;;;;;13.28;99.16;96967.13;5035161;28;20060;-65
2022/05/28 01:48:54;;;;;;;5.40;1.80;;;;;;;13.25;98.98;96964.34;5022512;28;20595;-64
2022/05/28 01:51:22;;;;;;;4.43;1.70;;;;;;;12.69;100.00;96972.34;5035232;28;20409;-65
2022/05/28 01:56:38;;;;;;;6.78;2.40;;;;;;;11.83;100.00;96973.91;5038908;28;20398;-64
2022/05/28 01:59:05;;;;;;;5.07;2.00;;;;;;;11.72;100.00;96959.19;5036049;28;20055;-62
2022/05/28 02:01:31;;;;;;;7.38;2.08;;;;;;;11.90;100.00;96965.78;5038739;28;20497;-65
2022/05/28 02:04:01;;;;;;;4.47;2.08;;;;;;;12.21;100.00;96961.94;5039627;28;20068;-65
2022/05/28 02:06:27;;;;;;;5.32;2.10;;;;;;;12.38;100.00;96962.53;5034078;28;20534;-64
2022/05/28 02:08:55;;;;;;;3.20;2.15;;;;;;;12.59;100.00;96953.81;5039512;28;20052;-65
2022/05/28 02:11:25;;;;;;;9.55;2.40;;;;;;;12.58;100.00;96961.22;5033624;28;20398;-66
2022/05/28 02:14:05;;;;;;;;;;;;;;;12.69;100.00;96958.63;5039783;28;20064;-65
2022/05/28 02:16:52;;;;;;;6.95;2.30;;;;;;;12.91;100.00;96953.38;5037875;28;19958;-64
2022/05/28 02:19:26;;;;;;;3.53;1.88;;;;;;;12.94;100.00;96950.66;5035788;28;20037;-65
2022/05/28 02:22:10;;;;;;;2.95;2.00;;;;;;;13.00;100.00;96942.88;5043285;28;20041;-66
2022/05/28 02:24:41;;;;;;;6.97;2.25;;;;;;;13.06;100.00;96943.34;5041500;28;20132;-65
2022/05/28 02:27:14;;;;;;;3.53;2.15;;;;;;;12.94;100.00;96938.88;5039216;28;20424;-65
2022/05/28 02:29:40;;;;;;;4.25;1.90;;;;;;;12.93;100.00;96940.84;5044713;28;20083;-65
2022/05/28 02:32:18;;;;;;;8.48;1.90;;;;;;;12.81;100.00;96932.84;5039375;28;20091;-66
2022/05/28 02:34:45;;;;;;;5.38;1.98;;;;;;;12.95;100.00;96933.00;5043198;28;20041;-65
2022/05/28 02:37:15;;;;;;;2.95;1.60;;;;;;;12.95;100.00;96930.25;5037123;28;20049;-64
2022/05/28 02:39:41;;;;;;;5.30;1.80;;;;;;;12.39;100.00;96940.22;5025142;28;20086;-65
2022/05/28 02:42:07;;;;;;;7.20;2.08;;;;;;;12.02;100.00;96932.63;5037491;28;20045;-65
2022/05/28 02:44:33;;;;;;;2.55;1.63;;;;;;;11.96;100.00;96936.09;5042850;28;20124;-66
2022/05/28 02:46:58;;;;;;;3.42;1.80;;;;;;;11.97;100.00;96932.16;5042407;28;20152;-66
2022/05/28 02:49:25;;;;;;;5.68;2.22;;;;;;;11.92;100.00;96933.28;5036884;28;20497;-65
2022/05/28 02:51:52;;;;;;;5.75;2.67;;;;;;;11.86;100.00;96931.97;5043065;28;20049;-66
2022/05/28 02:54:18;;;;;;;3.42;2.00;;;;;;;11.89;100.00;96931.25;5037394;28;20037;-65
2022/05/28 02:56:43;;;;;;;4.88;2.33;;;;;;;11.81;100.00;96932.28;5041640;28;20041;-64
2022/05/28 02:59:09;;;;;;;3.22;2.30;;;;;;;11.70;100.00;96926.63;5036168;28;20052;-64
2022/05/28 03:01:34;;;;;;;4.50;2.65;;;;;;;11.75;100.00;96928.28;5042900;28;20052;-64
2022/05/28 03:04:00;;;;;;;5.32;2.35;;;;;;;11.72;100.00;96935.31;5042860;28;20063;-65
2022/05/28 03:06:26;;;;;;;4.82;2.30;;;;;;;11.71;100.00;96928.22;5036594;28;20486;-65
2022/05/28 03:08:52;;;;;;;4.40;2.70;;;;;;;11.46;100.00;96925.09;5042035;28;20075;-64
2022/05/28 03:11:18;;;;;;;5.47;2.72;;;;;;;11.28;100.00;96936.53;5036580;28;20052;-63
2022/05/28 03:13:44;;;;;;;5.43;2.75;;;;;;;11.24;100.00;96929.41;5042468;28;20049;-67
2022/05/28 03:16:10;;;;;;;4.32;2.85;;;;;;;11.30;100.00;96936.19;5018509;28;20491;-67
2022/05/28 03:18:36;;;;;;;4.10;2.65;;;;;;;11.28;100.00;96924.78;5041760;28;20470;-66
2022/05/28 03:21:02;;;;;;;5.03;2.72;;;;;;;11.22;100.00;96927.03;5024584;28;20135;-67
2022/05/28 03:23:28;;;;;;;6.20;2.88;;;;;;;11.31;100.00;96932.28;5035589;28;20079;-66
2022/05/28 03:25:53;;;;;;;4.68;2.40;;;;;;;11.61;100.00;96928.84;5031937;28;20064;-67
2022/05/28 03:28:19;;;;;;;5.45;3.15;;;;;;;11.84;100.00;96926.06;5036999;28;20041;-66
2022/05/28 03:30:44;;;;;;;5.88;2.05;;;;;;;11.80;100.00;96926.00;5041952;28;20434;-68
2022/05/28 03:33:09;;;;;;;5.07;2.47;;;;;;;11.83;100.00;96916.25;5037379;28;20506;-66
2022/05/28 03:35:37;;;;;;;4.03;2.47;;;;;;;11.86;100.00;96919.03;5041997;28;20412;-65
2022/05/28 03:38:04;;;;;;;7.63;2.40;;;;;;;11.95;100.00;96927.03;5040714;28;20662;-62
2022/05/28 03:40:30;;;;;;;4.22;2.20;;;;;;;11.95;100.00;96923.50;5041168;28;20098;-66
2022/05/28 03:42:56;;;;;;;5.55;2.50;;;;;;;12.06;100.00;96921.69;5031868;28;20040;-65
2022/05/28 03:45:21;;;;;;;5.43;2.40;;;;;;;12.35;100.00;96924.84;5036308;28;20041;-66
2022/05/28 03:47:46;;;;;;;6.00;2.22;;;;;;;12.60;100.00;96925.16;5042674;28;20099;-69
2022/05/28 03:50:12;;;;;;;6.40;2.00;;;;;;;12.69;100.00;96928.38;5038160;28;20549;-64
2022/05/28 03:52:37;;;;;;;2.97;2.08;;;;;;;12.74;100.00;96924.53;5021745;28;20042;-66
2022/05/28 03:55:03;;;;;;;5.50;1.90;;;;;;;12.78;100.00;96928.09;5040598;28;20046;-63
2022/05/28 03:57:31;;;;;;;4.65;2.17;;;;;;;12.73;100.00;96937.47;5033405;28;20048;-65
2022/05/28 03:59:58;;;;;;;6.35;2.38;;;;;;;12.48;100.00;96939.13;5033915;28;20135;-68
2022/05/28 04:02:25;;;;;;;4.57;2.50;;;;;;;12.36;100.00;96948.41;5037562;28;20672;-67
2022/05/28 04:04:50;;;;;;;5.88;2.95;;;;;;;12.23;100.00;96953.34;5037297;28;20049;-65
2022/05/28 04:07:16;;;;;;;4.82;2.70;;;;;;;11.53;100.00;96960.06;5030604;28;20044;-66
2022/05/28 04:09:42;;;;;;;3.67;2.28;;;;;;;11.32;100.00;96964.03;5032562;28;20059;-65
2022/05/28 04:12:08;;;;;;;6.63;2.95;;;;;;;10.98;100.00;96961.06;5034493;28;20059;-65
2022/05/28 04:14:34;;;;;;;7.82;3.20;;;;;;;11.28;100.00;96963.16;5033274;28;20052;-66
2022/05/28 04:16:59;;;;;;;5.10;2.25;;;;;;;11.63;100.00;96967.66;5041662;28;20060;-66
2022/05/28 04:19:25;;;;;;;5.15;2.50;;;;;;;12.05;100.00;96973.06;5033618;28;20131;-65
2022/05/28 04:21:50;;;;;;;4.32;2.80;;;;;;;12.24;100.00;96974.13;5041361;28;20099;-67
2022/05/28 04:24:16;;;;;;;5.07;2.83;;;;;;;12.26;100.00;96971.78;5036299;28;20037;-66
2022/05/28 04:26:41;;;;;;;8.90;2.53;;;;;;;12.21;100.00;96975.66;5040054;28;20045;-66
2022/05/28 04:29:07;;;;;;;6.43;2.72;;;;;;;12.12;100.00;96975.16;5023791;28;20051;-62
2022/05/28 04:31:33;;;;;;;3.58;2.40;;;;;;;12.37;100.00;96983.75;5030423;28;20056;-64
2022/05/28 04:33:58;;;;;;;5.30;3.20;;;;;;;12.58;100.00;96983.22;5040765;28;20102;-66
2022/05/28 04:36:24;;;;;;;5.05;2.80;;;;;;;12.74;100.00;96985.78;5026398;28;20343;-66
2022/05/28 04:38:49;;;;;;;4.90;2.45;;;;;;;12.71;100.00;96983.78;5039941;28;20041;-65
2022/05/28 04:41:15;;;;;;;4.15;2.53;;;;;;;12.95;100.00;96979.75;5028400;28;20052;-65
2022/05/28 04:43:40;;;;;;;5.40;2.33;;;;;;;13.09;100.00;96973.63;5020490;28;20049;-66
2022/05/28 04:46:06;;;;;;;4.50;2.22;;;;;;;13.17;100.00;96988.22;5050016;28;20489;-62
2022/05/28 04:48:32;;;;;;;6.05;2.13;;;;;;;13.41;100.00;96980.66;5053374;28;20122;-65
2022/05/28 04:50:57;;;;;;;3.70;2.33;;;;;;;13.49;100.00;96983.09;5020178;28;20383;-64
2022/05/28 04:53:23;;;;;;;5.45;2.35;;;;;;;13.44;100.00;96985.41;5031939;28;20075;-66
2022/05/28 04:55:48;;;;;;;3.60;2.28;;;;;;;13.61;100.00;96981.22;5040408;28;20041;-66
2022/05/28 04:58:15;;;;;;;4.35;2.67;;;;;;;13.70;100.00;96984.44;5032126;28;20041;-66
2022/05/28 05:00:41;;;;;;;4.75;2.33;;;;;;;13.72;100.00;96985.66;5040891;28;20136;-66
2022/05/28 05:03:07;;;;;;;4.13;2.47;;;;;;;13.92;100.00;96985.44;5036019;28;20375;-67
2022/05/28 05:05:32;;;;;;;3.38;2.10;;;;;;;13.94;100.00;96994.09;5040341;28;20049;-67
2022/05/28 05:07:58;;;;;;;5.10;2.72;;;;;;;13.93;100.00;96998.78;5040656;28;20398;-65
2022/05/28 05:10:24;;;;;;;3.97;2.50;;;;;;;14.04;100.00;96987.84;5033694;28;20045;-64
2022/05/28 05:12:49;;;;;;;6.50;2.80;;;;;;;14.19;100.00;96994.28;5047599;28;20091;-66
2022/05/28 05:15:15;;;;;;;4.82;2.50;;;;;;;14.53;100.00;96994.88;5051514;28;20040;-65
2022/05/28 05:17:41;;;;;;;4.95;1.90;;;;;;;14.95;99.57;96989.97;5040657;28;20052;-65
2022/05/28 05:20:08;;;;;;;5.45;2.40;;;;;;;15.76;94.71;96987.81;5036641;28;20695;-66
2022/05/28 05:22:33;;;;;;;3.90;2.08;;;;;;;16.71;86.90;96997.53;5041006;28;20076;-64
2022/05/28 05:24:59;;;;;;;4.80;2.25;;;;;;;16.98;83.41;96982.06;5031170;28;20528;-66
2022/05/28 05:27:24;;;;;;;5.82;2.58;;;;;;;17.54;73.06;96982.16;5024336;28;20049;-66
2022/05/28 05:29:50;;;;;;;8.20;2.67;;;;;;;19.14;63.58;96980.25;5040405;28;20671;-67
2022/05/28 05:32:15;;;;;;;5.93;2.53;;;;;;;19.64;60.00;96987.09;5035418;28;20037;-66
2022/05/28 05:34:42;;;;;;;6.28;2.35;;;;;;;19.77;59.20;96987.31;5039335;28;20049;-66
2022/05/28 05:37:08;;;;;;;6.20;2.03;;;;;;;19.63;58.30;96996.66;5025016;28;20037;-65
2022/05/28 05:39:33;;;;;;;7.22;2.58;;;;;;;19.99;58.56;96999.69;5039729;28;20430;-64
2022/05/28 05:41:59;;;;;;;6.88;2.30;;;;;;;20.32;56.63;96990.81;5029806;28;20063;-66
2022/05/28 05:44:24;;;;;;;10.68;2.50;;;;;;;19.56;58.10;96991.97;5026839;28;20040;-64
2022/05/28 05:46:50;;;;;;;12.10;2.78;;;;;;;18.97;61.72;96995.94;5040470;28;20114;-65
2022/05/28 05:49:15;;;;;;;6.30;2.20;;;;;;;18.43;64.09;97001.25;5024020;28;20056;-65
2022/05/28 05:51:45;;;;;;;6.60;2.72;;;;;;;18.43;64.71;96996.50;5038955;28;20052;-66
2022/05/28 05:54:11;;;;;;;4.55;2.17;;;;;;;18.39;64.28;96998.50;5028678;28;20094;-64
2022/05/28 05:56:36;;;;;;;6.35;2.40;;;;;;;18.39;64.85;96989.41;5036712;28;20091;-65
2022/05/28 05:59:02;;;;;;;7.63;2.25;;;;;;;18.93;64.13;96989.63;5031740;28;20029;-62
2022/05/28 06:01:27;;;;;;;8.43;2.30;;;;;;;19.70;60.08;96995.72;5015385;28;20080;-68
2022/05/28 06:03:53;;;;;;;4.47;2.00;;;;;;;20.65;59.07;96986.22;5040828;28;20037;-68
2022/05/28 06:06:19;;;;;;;4.93;2.10;;;;;;;22.68;51.48;96995.97;5033487;28;20037;-65
2022/05/28 06:08:45;;;;;;;5.32;1.60;;;;;;;23.99;46.47;96991.00;5040698;28;20078;-65
2022/05/28 06:11:10;;;;;;;6.72;2.33;;;;;;;19.42;55.97;96994.97;5033324;28;20040;-63
2022/05/28 06:13:36;;;;;;;5.22;2.08;;;;;;;20.13;55.59;97001.44;5039825;28;20101;-65
2022/05/28 06:16:02;;;;;;;6.35;2.78;;;;;;;17.45;64.18;96998.44;5037258;28;20041;-67
2022/05/28 06:18:28;;;;;;;4.85;2.38;;;;;;;17.99;65.71;96991.75;5027710;28;20072;-67
2022/05/28 06:20:54;;;;;;;5.40;2.83;;;;;;;16.20;72.83;97003.16;5039571;28;20493;-67
2022/05/28 06:23:20;;;;;;;8.13;3.55;;;;;;;13.87;86.72;96999.53;5033379;28;20398;-67
2022/05/28 06:25:46;;;;;;;8.65;3.40;;;;;;;13.86;88.41;96995.19;5037727;28;20098;-66
2022/05/28 06:28:11;;;;;;;5.90;3.67;;;;;;;13.98;89.47;96997.66;5034864;28;20037;-64
2022/05/28 06:30:37;;;;;;;9.55;4.00;;;;;;;14.11;87.38;96998.13;5039695;28;20521;-65
2022/05/28 06:33:03;;;;;;;9.95;4.05;;;;;;;13.70;88.33;96998.19;5033563;28;20050;-63
2022/05/28 06:35:32;;;;;;;8.77;3.90;;;;;;;13.25;94.19;97000.88;5033211;28;20045;-66
2022/05/28 06:37:57;;;;;;;7.72;3.70;;;;;;;13.32;92.93;97000.19;5038708;28;20037;-64
2022/05/28 06:40:23;;;;;;;13.30;7.63;;;;;;;13.50;91.49;96997.63;5035926;28;20052;-64
2022/05/28 06:42:50;;;;;;;10.57;4.63;;;;;;;13.72;89.03;96996.66;5022194;28;20490;-65
2022/05/28 06:45:16;;;;;;;8.40;4.22;;;;;;;13.74;90.16;96999.03;5035312;28;20520;-66
2022/05/28 06:47:43;;;;;;;10.80;3.75;;;;;;;13.69;89.99;97000.16;5038828;28;20041;-66
2022/05/28 06:52:54;;;;;;;7.68;3.20;;;;;;;14.05;88.83;97005.19;5039537;28;20041;-65
2022/05/28 06:55:20;;;;;;;6.78;3.83;;;;;;;14.51;88.02;97002.75;5024197;28;20049;-65
2022/05/28 06:57:45;;;;;;;7.88;3.05;;;;;;;15.45;81.10;97008.66;5028885;28;20107;-66
2022/05/28 07:00:11;;;;;;;8.40;4.22;;;;;;;17.24;72.95;97004.88;5027010;28;20030;-65
2022/05/28 07:02:36;;;;;;;8.95;3.47;;;;;;;15.98;72.74;96993.34;5026042;28;20057;-65
2022/05/28 07:05:02;;;;;;;5.95;2.88;;;;;;;14.93;77.38;96992.34;5042722;28;20410;-66
2022/05/28 07:07:27;;;;;;;6.78;3.03;;;;;;;16.43;69.81;97004.72;5028598;28;20045;-67
2022/05/28 07:09:53;;;;;;;8.10;3.15;;;;;;;15.74;71.11;97003.97;5041330;28;20792;-67
2022/05/28 07:12:18;;;;;;;8.80;3.17;;;;;;;14.94;73.83;96998.63;5030001;28;20493;-66
2022/05/28 07:14:43;;;;;;;11.88;3.45;;;;;;;15.92;70.71;97006.75;5042146;28;20052;-67
2022/05/28 07:17:09;;;;;;;6.05;3.42;;;;;;;15.38;70.76;96992.06;5036044;28;20037;-66
2022/05/28 07:19:34;;;;;;;8.63;3.60;;;;;;;15.53;72.67;96998.41;5032604;28;20068;-67
2022/05/28 07:21:59;;;;;;;6.25;3.15;;;;;;;16.17;68.79;96998.47;5036738;28;20402;-67
2022/05/28 07:24:25;;;;;;;6.30;3.17;;;;;;;15.86;68.36;97000.84;5033605;28;20044;-64
2022/05/28 07:26:51;;;;;;;8.18;2.53;;;;;;;15.96;69.69;97009.53;5037414;28;20053;-66
2022/05/28 07:29:17;;;;;;;10.00;3.42;;;;;;;16.95;60.79;96998.69;5035602;28;20045;-62
2022/05/28 07:31:43;;;;;;;11.05;3.35;;;;;;;16.12;65.05;96998.06;5042606;28;20037;-66
2022/05/28 07:34:08;;;;;;;10.45;3.28;;;;;;;16.21;66.33;96992.94;5038177;28;20151;-66
2022/05/28 07:36:35;;;;;;;7.40;3.38;;;;;;;15.50;66.86;96991.69;5030973;28;20124;-64
2022/05/28 07:39:02;;;;;;;10.95;3.53;;;;;;;14.83;68.13;96982.81;5042447;28;20521;-64
2022/05/28 07:41:28;;;;;;;7.63;3.47;;;;;;;15.77;66.09;96977.53;5029451;28;20149;-64
2022/05/28 07:43:56;;;;;;;9.05;3.53;;;;;;;16.11;66.79;96983.44;5039852;28;20064;-66
2022/05/28 07:46:30;;;;;;;15.68;3.95;;;;;;;17.75;56.83;96972.91;5027391;28;20056;-64
2022/05/28 07:48:57;;;;;;;16.20;3.35;;;;;;;18.81;54.14;96967.94;5041285;28;20095;-66
2022/05/28 07:51:23;;;;;;;8.45;2.72;;;;;;;19.63;51.02;96968.88;5034591;28;20129;-66
2022/05/28 07:53:49;;;;;;;7.30;2.78;;;;;;;20.03;50.69;96977.38;5041481;28;20049;-67
2022/05/28 07:56:15;;;;;;;6.95;2.33;;;;;;;19.98;50.31;96969.53;5018667;28;20048;-66
2022/05/28 07:58:41;;;;;;;6.07;2.72;;;;;;;19.82;49.53;96970.94;5039854;28;20080;-67
2022/05/28 08:01:16;;;;;;;8.38;2.45;;;;;;;19.54;49.98;96974.16;5027568;28;20052;-64
2022/05/28 08:03:42;;;;;;;7.72;2.85;;;;;;;19.05;48.30;96974.41;5032856;28;20060;-66
2022/05/28 08:06:07;;;;;;;9.10;2.75;;;;;;;19.87;48.84;96966.91;5028599;28;20145;-65
2022/05/28 08:08:33;;;;;;;7.55;2.60;;;;;;;20.21;45.04;96969.50;5037455;28;20045;-66
2022/05/28 08:10:58;;;;;;;6.65;2.65;;;;;;;21.57;42.78;96960.47;5032314;28;20515;-66
2022/05/28 08:13:24;;;;;;;9.63;2.50;;;;;;;17.58;54.16;96966.28;5025377;28;20040;-67
2022/05/28 08:15:52;;;;;;;10.88;2.47;;;;;;;17.14;55.00;96975.25;5038951;28;20037;-66
2022/05/28 08:18:20;;;;;;;9.60;2.92;;;;;;;17.41;52.37;96961.66;5027907;28;20044;-67
2022/05/28 08:23:30;;;;;;;8.82;2.38;;;;;;;18.05;54.13;96963.19;5039987;28;20067;-66
2022/05/28 08:25:55;;;;;;;9.65;2.55;;;;;;;19.05;48.49;96958.56;5060853;28;20045;-66
2022/05/28 08:28:21;;;;;;;10.98;2.45;;;;;;;19.85;46.67;96967.34;5044505;28;20491;-64
2022/05/28 08:30:47;;;;;;;15.65;2.83;;;;;;;19.35;48.46;96962.50;5038427;28;20049;-67
2022/05/28 08:33:14;;;;;;;6.80;2.47;;;;;;;19.25;48.69;96964.25;5035959;28;20091;-66
2022/05/28 08:35:41;;;;;;;13.85;3.47;;;;;;;19.01;48.55;96966.13;5020939;28;20167;-66
2022/05/28 08:38:10;;;;;;;11.80;3.08;;;;;;;19.53;47.79;96955.91;5030047;28;20037;-65
2022/05/28 08:40:43;;;;;;;6.88;2.30;;;;;;;19.68;46.65;96955.28;5039715;28;20037;-66
2022/05/28 08:43:11;;;;;;;6.13;2.00;;;;;;;20.34;45.42;96949.44;5031168;28;20916;-66
2022/05/28 08:45:37;;;;;;;12.00;3.10;;;;;;;20.28;46.08;96965.84;5019861;28;20045;-66
2022/05/28 08:48:03;;;;;;;8.63;2.50;;;;;;;19.45;48.15;96960.78;5036053;28;20033;-62
2022/05/28 08:50:30;;;;;;;7.95;2.25;;;;;;;20.43;46.71;96958.00;5018804;28;20063;-66
2022/05/28 08:53:18;;;;;;;8.27;2.20;;;;;;;21.71;42.89;96959.34;5054756;28;20041;-67
2022/05/28 08:55:47;;;;;;;10.93;2.53;;;;;;;22.57;41.18;96950.06;5046623;28;20462;-67
2022/05/28 08:58:17;;;;;;;6.63;2.50;;;;;;;21.79;40.83;96945.22;5036195;28;20056;-64
2022/05/28 09:00:48;;;;;;;6.05;2.60;;;;;;;22.16;38.91;96941.13;5039877;28;20299;-64
2022/05/28 09:03:27;;;;;;;4.90;1.90;;;;;;;20.83;40.65;96948.91;5036646;28;20102;-66
2022/05/28 09:06:01;;;;;;;7.50;2.45;;;;;;;22.37;37.36;96939.03;5040034;28;20041;-67
2022/05/28 09:08:46;;;;;;;8.90;2.20;;;;;;;21.53;37.89;96945.81;5036596;28;20073;-64
2022/05/28 09:11:28;;;;;;;4.78;2.03;;;;;;;22.79;37.05;96936.28;5035982;28;20045;-63
2022/05/28 09:13:55;;;;;;;7.60;2.60;;;;;;;23.51;35.73;96928.56;5039374;28;20103;-66
2022/05/28 09:16:30;;;;;;;9.18;1.98;;;;;;;24.19;35.23;96931.97;5028987;28;20307;-65
2022/05/28 09:19:03;;;;;;;6.25;2.47;;;;;;;23.08;38.50;96934.25;5040140;28;20132;-65
2022/05/28 09:21:29;;;;;;;7.18;1.92;;;;;;;23.13;41.64;96918.16;5019186;28;20630;-66
2022/05/28 09:23:57;;;;;;;7.32;2.45;;;;;;;23.39;39.28;96916.97;5041134;28;20040;-65
2022/05/28 09:26:31;;;;;;;6.95;2.08;;;;;;;23.25;37.98;96918.16;5035054;28;21391;-66
2022/05/28 09:29:17;;;;;;;9.75;3.08;;;;;;;23.69;37.11;96925.97;5035264;28;20045;-65
2022/05/28 09:32:01;;;;;;;10.05;2.63;;;;;;;22.85;40.30;96915.75;5039467;28;20045;-66
2022/05/28 09:35:09;;;;;;;6.32;2.22;;;;;;;22.05;42.88;96910.72;5017811;28;20049;-65
2022/05/28 09:37:52;;;;;;;7.43;1.95;;;;;;;21.35;44.44;96921.13;5021694;28;20049;-66
2022/05/28 09:40:38;;;;;;;6.28;2.50;;;;;;;21.30;43.76;96909.72;5037208;28;20070;-65
2022/05/28 09:43:28;;;;;;;9.30;2.88;;;;;;;20.47;45.79;96916.22;5031133;28;20052;-62
2022/05/28 09:46:19;;;;;;;7.45;3.08;;;;;;;20.39;46.89;96908.00;5039534;28;20029;-64
2022/05/28 09:48:47;;;;;;;7.10;2.65;;;;;;;19.70;48.95;96904.84;5039398;28;20044;-65
2022/05/28 09:51:21;;;;;;;10.05;3.47;;;;;;;19.17;49.22;96896.13;5037327;28;20134;-65
2022/05/28 09:56:37;;;;;;;8.90;3.17;;;;;;;19.91;48.64;96902.94;5019244;28;20033;-65
2022/05/28 09:59:37;;;;;;;6.97;2.67;;;;;;;20.07;48.95;96888.34;5030218;28;20106;-62
2022/05/28 10:02:17;;;;;;;7.18;2.50;;;;;;;19.36;48.93;96905.78;5022569;28;20048;-62
2022/05/28 10:04:57;;;;;;;8.25;2.75;;;;;;;19.58;47.14;96894.31;5039323;28;20094;-66
2022/05/28 10:07:34;;;;;;;9.07;3.30;;;;;;;19.42;48.38;96886.63;5034306;28;20049;-66
2022/05/28 10:10:10;;;;;;;9.07;3.75;;;;;;;19.25;49.69;96886.50;5041021;28;20068;-65
2022/05/28 10:12:35;;;;;;;23.25;11.85;;;;;;;20.07;46.70;96888.34;5038210;28;20072;-65
2022/05/28 10:15:09;;;;;;;6.95;2.78;;;;;;;20.51;45.43;96880.75;5028277;28;20073;-66
2022/05/28 10:17:35;;;;;;;22.90;12.55;;;;;;;20.19;45.79;96882.19;5037354;28;20197;-65
2022/05/28 10:20:13;;;;;;;25.92;12.32;;;;;;;19.69;46.71;96883.81;5029477;28;20528;-62
2022/05/28 10:22:38;;;;;;;24.25;14.60;;;;;;;19.96;48.42;96883.00;5037276;28;20079;-66
2022/05/28 10:25:13;;;;;;;12.35;5.22;;;;;;;19.67;46.99;96877.91;5036376;28;20040;-61
2022/05/28 10:27:50;;;;;;;20.10;9.70;;;;;;;19.85;48.42;96881.19;5039540;28;20103;-65
2022/05/28 10:30:35;;;;;;;8.73;3.08;;;;;;;19.99;45.54;96873.81;5034784;28;20095;-65
2022/05/28 10:33:18;;;;;;;8.95;2.70;;;;;;;20.21;44.91;96863.06;5040736;28;20033;-65
2022/05/28 10:35:45;;;;;;;8.30;2.90;;;;;;;20.47;44.16;96869.69;5036051;28;20072;-64
2022/05/28 10:38:10;;;;;;;11.48;5.10;;;;;;;21.14;44.63;96869.50;5028357;28;20045;-65
2022/05/28 10:40:49;;;;;;;13.77;5.75;;;;;;;20.83;45.28;96860.63;5033725;28;20433;-65
2022/05/28 10:43:47;;;;;;;9.43;4.37;;;;;;;20.49;45.17;96867.28;5038736;28;20151;-65
2022/05/28 10:46:45;;;;;;;11.10;6.28;;;;;;;20.13;46.77;96864.41;4982880;28;20500;-65
2022/05/28 10:49:45;;;;;;;8.65;4.10;;;;;;;19.90;47.73;96862.44;5031566;28;20037;-64
2022/05/28 10:52:29;;;;;;;6.95;3.15;;;;;;;18.95;50.09;96858.78;5018845;28;20060;-62
2022/05/28 10:55:05;;;;;;;12.82;3.50;;;;;;;18.21;52.32;96859.31;5028960;28;20048;-65
2022/05/28 10:57:45;;;;;;;9.77;3.22;;;;;;;18.04;52.01;96853.53;5042248;28;20654;-62
2022/05/28 11:00:17;;;;;;;8.85;2.88;;;;;;;18.16;52.17;96854.97;5032822;28;20392;-62
2022/05/28 11:03:00;;;;;;;6.72;3.10;;;;;;;18.25;52.63;96846.94;5025246;28;20055;-64
2022/05/28 11:05:54;;;;;;;8.00;2.80;;;;;;;17.73;53.17;96852.63;5038033;28;20037;-65
2022/05/28 11:08:46;;;;;;;8.90;2.72;;;;;;;17.56;52.58;96857.91;5028039;28;20472;-65
2022/05/28 11:11:39;;;;;;;5.45;2.00;;;;;;;17.61;52.42;96842.03;4987489;28;20376;-63
2022/05/28 11:14:31;;;;;;;9.00;2.60;;;;;;;17.70;51.55;96839.59;5019972;28;20041;-60
2022/05/28 11:17:11;;;;;;;6.78;2.55;;;;;;;17.71;53.19;96849.47;5023101;28;20044;-64
2022/05/28 11:19:48;;;;;;;;;;;;;;;17.81;51.95;96843.06;5022964;28;20042;-65
2022/05/28 11:22:20;;;;;;;8.20;2.38;;;;;;;18.09;51.25;96843.97;5027572;28;19956;-65
2022/05/28 11:25:05;;;;;;;10.05;2.30;;;;;;;18.50;49.82;96845.88;5046106;28;20688;-65
2022/05/28 11:27:40;;;;;;;14.38;6.82;;;;;;;17.62;51.64;96844.41;5052385;28;20108;-65
2022/05/28 11:30:19;;;;;;;11.45;4.68;;;;;;;16.82;55.59;96837.88;5042173;28;20044;-64
2022/05/28 11:32:52;;;;;;;7.60;2.90;;;;;;;17.39;54.42;96836.69;5025286;28;20059;-67
2022/05/28 11:35:44;;;;;;;10.20;2.53;;;;;;;17.81;53.12;96836.72;5035995;28;20795;-63
2022/05/28 11:38:26;;;;;;;9.15;2.90;;;;;;;17.58;54.41;96843.66;5031921;28;20525;-65
2022/05/28 11:41:13;;;;;;;6.80;2.47;;;;;;;17.60;54.58;96835.72;5043480;28;20124;-67
2022/05/28 11:43:58;;;;;;;8.30;2.60;;;;;;;17.65;56.40;96826.19;5042592;28;20490;-65
2022/05/28 11:46:41;;;;;;;8.13;2.83;;;;;;;17.91;55.20;96813.69;5038029;28;20517;-63
2022/05/28 11:52:08;;;;;;;5.45;2.35;;;;;;;17.99;53.60;96817.16;5035347;28;20131;-64
2022/05/28 11:54:40;;;;;;;5.45;2.28;;;;;;;18.46;52.75;96817.41;5025899;28;20045;-66
2022/05/28 11:57:16;;;;;;;10.23;3.00;;;;;;;18.85;50.16;96814.13;5037914;28;20043;-66